createdAt,value
2022-11-03T00:01:48.960Z,11.92
2022-11-03T00:04:18.097Z,11.86
2022-11-03T00:06:47.068Z,11.79
2022-11-03T00:09:15.622Z,11.71
2022-11-03T00:11:44.528Z,11.67
2022-11-03T00:14:12.526Z,11.64
2022-11-03T00:16:39.846Z,11.39
2022-11-03T00:19:08.334Z,11.46
2022-11-03T00:21:35.455Z,11.46
2022-11-03T00:24:02.962Z,11.44
2022-11-03T00:26:31.965Z,11.30
2022-11-03T00:29:01.593Z,11.15
2022-11-03T00:31:31.133Z,11.03
2022-11-03T00:33:59.480Z,11.13
2022-11-03T00:36:29.599Z,11.25
2022-11-03T00:38:57.882Z,11.27
2022-11-03T00:41:26.981Z,11.28
2022-11-03T00:43:54.783Z,11.28
2022-11-03T00:46:23.038Z,11.19
2022-11-03T00:48:50.382Z,11.16
2022-11-03T00:51:24.032Z,11.10
2022-11-03T00:53:53.155Z,11.04
2022-11-03T00:56:22.627Z,11.10
2022-11-03T00:58:50.791Z,11.10
2022-11-03T01:01:20.865Z,11.11
2022-11-03T01:04:08.413Z,11.10
2022-11-03T01:06:55.521Z,11.01
2022-11-03T01:09:28.164Z,10.95
2022-11-03T01:12:10.191Z,10.97
2022-11-03T01:14:37.019Z,10.94
2022-11-03T01:17:13.412Z,10.87
2022-11-03T01:19:40.515Z,10.83
2022-11-03T01:22:10.679Z,10.85
2022-11-03T01:24:41.353Z,10.87
2022-11-03T01:27:10.080Z,10.88
2022-11-03T01:29:37.063Z,10.89
2022-11-03T01:32:04.142Z,10.82
2022-11-03T01:34:31.320Z,10.77
2022-11-03T01:36:58.288Z,10.70
2022-11-03T01:39:25.126Z,10.72
2022-11-03T01:41:53.359Z,10.72
2022-11-03T01:44:37.563Z,10.75
2022-11-03T01:47:33.210Z,10.72
2022-11-03T01:50:08.025Z,10.71
2022-11-03T01:52:39.338Z,10.66
2022-11-03T01:55:16.164Z,10.66
2022-11-03T01:57:55.857Z,10.70
2022-11-03T02:00:23.079Z,10.73
2022-11-03T02:02:50.973Z,10.73
2022-11-03T02:05:19.515Z,10.76
2022-11-03T02:07:46.298Z,10.74
2022-11-03T02:10:13.405Z,10.73
2022-11-03T02:12:40.834Z,10.70
2022-11-03T02:15:13.986Z,10.72
2022-11-03T02:17:42.819Z,10.68
2022-11-03T02:20:16.720Z,10.68
2022-11-03T02:23:20.432Z,10.62
2022-11-03T02:25:57.549Z,10.56
2022-11-03T02:28:30.047Z,10.55
2022-11-03T02:31:03.018Z,10.48
2022-11-03T02:33:55.967Z,10.45
2022-11-03T02:36:49.991Z,10.37
2022-11-03T02:39:25.495Z,10.32
2022-11-03T02:41:56.343Z,10.03
2022-11-03T02:44:25.817Z,9.92
2022-11-03T02:46:58.768Z,9.87
2022-11-03T02:49:25.927Z,9.79
2022-11-03T02:52:03.881Z,9.84
2022-11-03T02:54:40.793Z,9.91
2022-11-03T02:57:30.633Z,9.95
2022-11-03T03:00:05.031Z,10.02
2022-11-03T03:02:43.140Z,10.16
2022-11-03T03:05:14.403Z,10.22
2022-11-03T03:07:46.258Z,10.30
2022-11-03T03:10:20.032Z,10.22
2022-11-03T03:12:49.618Z,10.24
2022-11-03T03:15:18.853Z,10.30
2022-11-03T03:17:53.807Z,10.37
2022-11-03T03:20:47.439Z,10.34
2022-11-03T03:23:26.783Z,10.39
2022-11-03T03:26:10.868Z,10.41
2022-11-03T03:28:48.546Z,10.40
2022-11-03T03:31:18.318Z,10.27
2022-11-03T03:33:48.039Z,10.15
2022-11-03T03:36:18.811Z,10.20
2022-11-03T03:38:52.337Z,10.19
2022-11-03T03:41:23.685Z,10.14
2022-11-03T03:43:57.534Z,10.20
2022-11-03T03:46:29.453Z,10.27
2022-11-03T03:48:56.393Z,10.34
2022-11-03T03:51:26.062Z,10.40
2022-11-03T03:53:54.566Z,10.30
2022-11-03T03:56:30.278Z,10.22
2022-11-03T03:58:57.181Z,10.21
2022-11-03T04:01:24.280Z,10.19
2022-11-03T04:03:51.283Z,10.15
2022-11-03T04:06:18.155Z,10.12
2022-11-03T04:08:45.570Z,10.10
2022-11-03T04:11:31.189Z,9.99
2022-11-03T04:14:16.453Z,9.91
2022-11-03T04:17:01.985Z,9.89
2022-11-03T04:19:47.461Z,9.85
2022-11-03T04:22:17.266Z,9.78
2022-11-03T04:24:51.970Z,9.72
2022-11-03T04:27:18.858Z,9.67
2022-11-03T04:29:45.803Z,9.73
2022-11-03T04:32:16.390Z,9.77
2022-11-03T04:34:45.693Z,9.81
2022-11-03T04:37:13.986Z,9.79
2022-11-03T04:39:41.257Z,9.98
2022-11-03T04:42:20.604Z,10.07
2022-11-03T04:44:48.675Z,10.12
2022-11-03T04:47:17.426Z,10.17
2022-11-03T04:49:46.972Z,10.19
2022-11-03T04:52:20.693Z,10.16
2022-11-03T04:54:50.106Z,10.11
2022-11-03T04:57:17.965Z,10.01
2022-11-03T04:59:50.737Z,9.99
2022-11-03T05:02:20.393Z,10.00
2022-11-03T05:04:47.221Z,9.99
2022-11-03T05:07:31.231Z,10.07
2022-11-03T05:09:58.544Z,10.06
2022-11-03T05:12:26.135Z,10.06
2022-11-03T05:14:58.079Z,10.05
2022-11-03T05:17:27.527Z,10.02
2022-11-03T05:20:00.096Z,9.97
2022-11-03T05:22:31.072Z,10.03
2022-11-03T05:25:02.704Z,10.05
2022-11-03T05:27:30.578Z,10.09
2022-11-03T05:30:01.035Z,10.11
2022-11-03T05:32:33.721Z,10.12
2022-11-03T05:35:01.342Z,10.21
2022-11-03T05:37:35.616Z,10.24
2022-11-03T05:40:17.748Z,10.30
2022-11-03T05:42:46.971Z,10.38
2022-11-03T05:45:22.681Z,10.47
2022-11-03T05:47:53.701Z,10.57
2022-11-03T05:50:26.289Z,10.68
2022-11-03T05:53:10.386Z,10.76
2022-11-03T05:55:37.529Z,10.82
2022-11-03T05:58:25.552Z,10.95
2022-11-03T06:00:53.962Z,11.08
2022-11-03T06:03:28.365Z,11.17
2022-11-03T06:05:57.122Z,11.26
2022-11-03T06:08:35.526Z,11.27
2022-11-03T06:11:04.734Z,11.45
2022-11-03T06:13:37.892Z,11.47
2022-11-03T06:16:31.677Z,11.57
2022-11-03T06:19:01.980Z,11.67
2022-11-03T06:21:28.812Z,11.80
2022-11-03T06:23:55.673Z,12.09
2022-11-03T06:26:26.349Z,12.03
2022-11-03T06:28:54.199Z,12.11
2022-11-03T06:31:28.825Z,12.32
2022-11-03T06:33:57.320Z,12.39
2022-11-03T06:36:32.688Z,12.42
2022-11-03T06:39:09.802Z,12.40
2022-11-03T06:41:37.272Z,12.56
2022-11-03T06:44:22.244Z,12.77
2022-11-03T06:46:49.166Z,12.93
2022-11-03T06:49:28.876Z,12.94
2022-11-03T06:51:57.237Z,12.96
2022-11-03T06:54:24.096Z,12.96
2022-11-03T06:56:51.086Z,13.19
2022-11-03T06:59:18.700Z,13.10
2022-11-03T07:01:48.908Z,13.20
2022-11-03T07:04:22.877Z,13.24
2022-11-03T07:06:53.524Z,13.41
2022-11-03T07:09:23.327Z,13.71
2022-11-03T07:11:53.704Z,13.69
2022-11-03T07:14:33.093Z,13.59
2022-11-03T07:17:05.036Z,13.69
2022-11-03T07:19:39.283Z,13.75
2022-11-03T07:22:16.854Z,13.67
2022-11-03T07:24:48.916Z,13.81
2022-11-03T07:27:29.126Z,13.85
2022-11-03T07:30:06.239Z,13.89
2022-11-03T07:32:35.048Z,14.11
2022-11-03T07:35:23.227Z,14.22
2022-11-03T07:37:52.471Z,14.75
2022-11-03T07:40:23.825Z,14.96
2022-11-03T07:42:51.970Z,14.75
2022-11-03T07:45:42.072Z,14.92
2022-11-03T07:48:18.753Z,15.04
2022-11-03T07:50:45.896Z,15.68
2022-11-03T07:53:24.821Z,15.58
2022-11-03T07:55:55.434Z,15.64
2022-11-03T07:58:26.124Z,15.41
2022-11-03T08:00:58.783Z,15.35
2022-11-03T08:03:36.008Z,15.09
2022-11-03T08:06:04.888Z,15.07
2022-11-03T08:08:34.510Z,14.94
2022-11-03T08:11:01.476Z,14.85
2022-11-03T08:13:28.524Z,14.67
2022-11-03T08:15:55.385Z,14.76
2022-11-03T08:18:22.526Z,15.05
2022-11-03T08:20:49.409Z,15.00
2022-11-03T08:23:25.688Z,15.29
2022-11-03T08:25:53.287Z,15.30
2022-11-03T08:28:20.222Z,15.62
2022-11-03T08:30:47.104Z,15.95
2022-11-03T08:33:13.997Z,15.98
2022-11-03T08:35:41.682Z,15.95
2022-11-03T08:38:09.095Z,15.94
2022-11-03T08:40:36.358Z,15.78
2022-11-03T08:43:03.343Z,15.89
2022-11-03T08:45:30.793Z,15.89
2022-11-03T08:47:58.069Z,15.92
2022-11-03T08:50:25.144Z,16.05
2022-11-03T08:52:52.083Z,16.21
2022-11-03T08:55:19.016Z,16.49
2022-11-03T08:57:46.021Z,16.41
2022-11-03T09:00:13.956Z,16.44
2022-11-03T09:02:40.905Z,16.26
2022-11-03T09:05:08.123Z,16.54
2022-11-03T09:10:24.855Z,16.30
2022-11-03T09:12:56.265Z,16.21
2022-11-03T09:15:23.608Z,16.76
2022-11-03T09:17:50.799Z,16.97
2022-11-03T09:20:17.912Z,16.75
2022-11-03T09:22:44.889Z,16.65
2022-11-03T09:25:11.819Z,16.69
2022-11-03T09:27:38.676Z,16.63
2022-11-03T09:30:13.399Z,16.81
2022-11-03T09:32:41.206Z,16.76
2022-11-03T09:35:10.371Z,16.40
2022-11-03T09:37:38.177Z,16.37
2022-11-03T09:40:06.728Z,16.55
2022-11-03T09:42:34.685Z,16.63
2022-11-03T10:17:00.505Z,16.59
2022-11-03T10:19:27.944Z,16.50
2022-11-03T10:21:54.809Z,16.88
2022-11-03T10:24:22.263Z,16.72
2022-11-03T10:26:51.383Z,16.86
2022-11-03T10:29:21.017Z,17.05
2022-11-03T10:31:50.609Z,17.20
2022-11-03T10:34:33.892Z,17.26
2022-11-03T10:37:23.388Z,17.23
2022-11-03T10:39:53.823Z,17.27
2022-11-03T10:42:23.092Z,17.18
2022-11-03T10:44:56.510Z,17.15
2022-11-03T10:47:34.863Z,17.14
2022-11-03T10:50:20.713Z,17.28
2022-11-03T10:52:48.016Z,17.33
2022-11-03T10:55:19.267Z,17.17
2022-11-03T10:57:53.153Z,18.04
2022-11-03T11:00:20.571Z,17.68
2022-11-03T11:02:49.161Z,17.41
2022-11-03T11:05:20.112Z,17.40
2022-11-03T11:07:48.420Z,17.24
2022-11-03T11:10:18.167Z,17.31
2022-11-03T11:13:23.131Z,17.25
2022-11-03T11:16:00.803Z,17.79
2022-11-03T11:18:27.692Z,17.40
2022-11-03T11:20:55.790Z,17.29
2022-11-03T11:23:28.727Z,17.04
2022-11-03T11:26:11.212Z,17.06
2022-11-03T11:29:10.417Z,16.76
2022-11-03T11:31:41.670Z,16.94
2022-11-03T11:34:18.486Z,16.86
2022-11-03T11:36:54.382Z,16.92
2022-11-03T11:39:24.509Z,17.03
2022-11-03T11:42:17.895Z,16.83
2022-11-03T11:44:52.833Z,16.88
2022-11-03T11:47:31.413Z,17.06
2022-11-03T11:50:07.647Z,17.03
2022-11-03T11:52:55.756Z,16.89
2022-11-03T11:55:30.138Z,17.26
2022-11-03T11:57:59.805Z,17.45
2022-11-03T12:00:30.756Z,17.53
2022-11-03T12:02:59.796Z,17.85
2022-11-03T12:05:30.265Z,17.63
2022-11-03T12:07:57.514Z,17.87
2022-11-03T12:10:27.001Z,17.41
2022-11-03T12:12:58.806Z,17.55
2022-11-03T12:15:58.224Z,17.19
2022-11-03T12:18:39.891Z,16.98
2022-11-03T12:21:11.095Z,16.71
2022-11-03T12:23:46.601Z,16.71
2022-11-03T12:26:17.649Z,16.62
2022-11-03T12:28:44.921Z,16.57
2022-11-03T12:31:12.678Z,16.66
2022-11-03T12:33:39.845Z,16.64
2022-11-03T12:36:07.353Z,16.71
2022-11-03T12:38:34.441Z,17.18
2022-11-03T12:41:20.070Z,17.48
2022-11-03T12:43:50.606Z,17.05
2022-11-03T12:46:19.274Z,17.14
2022-11-03T12:48:47.508Z,16.67
2022-11-03T12:51:18.752Z,17.12
2022-11-03T12:53:46.283Z,16.89
2022-11-03T12:56:14.799Z,16.74
2022-11-03T12:58:41.727Z,17.17
2022-11-03T13:01:09.436Z,17.09
2022-11-03T13:03:37.723Z,17.11
2022-11-03T13:06:09.950Z,17.09
2022-11-03T13:08:37.427Z,17.02
2022-11-03T13:11:04.523Z,17.03
2022-11-03T13:13:32.817Z,16.48
2022-11-03T13:15:59.664Z,16.37
2022-11-03T13:18:26.639Z,16.65
2022-11-03T13:20:54.285Z,16.88
2022-11-03T13:23:23.024Z,16.86
2022-11-03T13:25:50.337Z,16.62
2022-11-03T13:28:17.240Z,16.45
2022-11-03T13:30:44.179Z,16.23
2022-11-03T13:33:11.167Z,16.53
2022-11-03T13:35:38.328Z,16.21
2022-11-03T13:38:05.392Z,16.46
2022-11-03T13:43:19.568Z,16.26
2022-11-03T13:45:46.544Z,15.99
2022-11-03T13:51:00.673Z,15.77
2022-11-03T13:56:19.498Z,15.69
2022-11-03T14:01:36.693Z,15.76
2022-11-03T14:06:51.016Z,15.48
2022-11-03T14:09:17.952Z,15.29
2022-11-03T14:12:03.186Z,15.13
2022-11-03T14:14:30.084Z,15.07
2022-11-03T14:16:57.210Z,15.07
2022-11-03T14:19:30.781Z,15.03
2022-11-03T14:22:02.413Z,15.16
2022-11-03T14:24:29.324Z,14.70
2022-11-03T14:26:56.262Z,14.51
2022-11-03T14:29:23.188Z,14.55
2022-11-03T14:31:50.222Z,14.47
2022-11-03T14:34:17.210Z,14.56
2022-11-03T14:36:44.295Z,14.47
2022-11-03T14:39:11.180Z,14.38
2022-11-03T14:41:56.574Z,14.49
2022-11-03T14:44:23.976Z,14.44
2022-11-03T14:46:50.963Z,14.34
2022-11-03T14:49:17.881Z,14.40
2022-11-03T14:51:44.869Z,14.43
2022-11-03T14:54:11.794Z,14.35
2022-11-03T14:56:38.671Z,14.57
2022-11-03T14:59:05.556Z,14.59
2022-11-03T15:01:32.526Z,14.50
2022-11-03T15:03:59.652Z,14.24
2022-11-03T15:06:26.527Z,14.19
2022-11-03T15:08:56.381Z,14.03
2022-11-03T15:11:23.709Z,13.97
2022-11-03T15:13:52.639Z,13.97
2022-11-03T15:16:19.828Z,14.05
2022-11-03T15:18:46.780Z,14.00
2022-11-03T15:21:14.158Z,14.03
2022-11-03T15:26:28.224Z,14.02
2022-11-03T15:28:55.228Z,14.09
2022-11-03T15:31:23.796Z,14.02
2022-11-03T15:33:50.806Z,13.90
2022-11-03T15:36:17.832Z,13.77
2022-11-03T15:38:44.953Z,13.62
2022-11-03T15:41:19.107Z,13.43
2022-11-03T15:43:48.485Z,13.35
2022-11-03T15:46:17.527Z,13.36
2022-11-03T15:48:45.295Z,13.35
2022-11-03T15:51:12.557Z,13.46
2022-11-03T15:53:39.730Z,13.44
2022-11-03T15:56:07.465Z,13.44
2022-11-03T15:58:34.767Z,13.53
2022-11-03T16:01:03.220Z,13.59
2022-11-03T16:03:32.150Z,13.60
2022-11-03T16:05:59.383Z,13.67
2022-11-03T16:08:26.405Z,13.59
2022-11-03T16:10:57.690Z,13.66
2022-11-03T16:13:25.419Z,13.52
2022-11-03T16:15:54.631Z,13.51
2022-11-03T16:18:21.885Z,13.47
2022-11-03T16:20:48.868Z,13.42
2022-11-03T16:23:15.821Z,13.41
2022-11-03T16:25:43.136Z,13.52
2022-11-03T16:28:10.565Z,13.50
2022-11-03T16:30:38.821Z,13.52
2022-11-03T16:33:06.083Z,13.40
2022-11-03T16:35:33.576Z,13.31
2022-11-03T16:38:01.032Z,13.25
2022-11-03T16:40:28.220Z,13.12
2022-11-03T16:42:55.184Z,13.05
2022-11-03T16:45:23.922Z,13.07
2022-11-03T16:47:51.250Z,12.95
2022-11-03T16:50:19.106Z,12.94
2022-11-03T16:52:47.992Z,12.87
2022-11-03T16:55:16.392Z,13.09
2022-11-03T16:57:44.272Z,13.16
2022-11-03T17:00:14.834Z,12.97
2022-11-03T17:02:42.643Z,12.96
2022-11-03T17:05:11.476Z,12.79
2022-11-03T17:07:39.279Z,12.89
2022-11-03T17:10:09.518Z,13.05
2022-11-03T17:12:36.930Z,13.06
2022-11-03T17:15:05.810Z,12.94
2022-11-03T17:17:33.470Z,12.95
2022-11-03T17:20:00.866Z,12.89
2022-11-03T17:22:27.921Z,12.95
2022-11-03T17:24:54.838Z,12.99
2022-11-03T17:27:31.877Z,12.95
2022-11-03T17:30:06.203Z,12.95
2022-11-03T17:32:39.501Z,13.09
2022-11-03T17:35:38.659Z,13.15
2022-11-03T17:38:14.086Z,13.06
2022-11-03T17:40:48.530Z,12.99
2022-11-03T17:43:18.655Z,13.13
2022-11-03T17:45:45.589Z,13.05
2022-11-03T17:48:12.672Z,12.95
2022-11-03T17:50:46.264Z,12.97
2022-11-03T17:53:20.027Z,13.11
2022-11-03T17:55:53.192Z,13.24
2022-11-03T17:58:36.184Z,13.05
2022-11-03T18:01:04.828Z,13.04
2022-11-03T18:03:31.923Z,13.15
2022-11-03T18:05:58.842Z,13.12
2022-11-03T18:08:25.766Z,13.05
2022-11-03T18:10:54.388Z,12.97
2022-11-03T18:13:30.113Z,12.72
2022-11-03T18:16:07.898Z,12.87
2022-11-03T18:18:38.350Z,12.79
2022-11-03T18:21:05.564Z,12.56
2022-11-03T18:23:34.466Z,12.36
2022-11-03T18:26:02.734Z,12.59
2022-11-03T18:28:29.686Z,12.63
2022-11-03T18:30:57.248Z,12.47
2022-11-03T18:33:24.213Z,12.27
2022-11-03T18:35:51.580Z,12.36
2022-11-03T18:38:18.653Z,12.61
2022-11-03T18:40:45.680Z,12.60
2022-11-03T18:43:23.603Z,12.43
2022-11-03T18:45:51.171Z,12.40
2022-11-03T18:48:21.112Z,12.37
2022-11-03T18:50:54.045Z,12.26
2022-11-03T18:53:23.541Z,12.51
2022-11-03T18:56:00.863Z,12.60
2022-11-03T18:58:28.245Z,12.56
2022-11-03T19:00:55.239Z,12.62
2022-11-03T19:03:23.603Z,12.70
2022-11-03T19:05:52.769Z,12.60
2022-11-03T19:08:26.275Z,12.69
2022-11-03T19:10:56.121Z,12.52
2022-11-03T19:13:33.573Z,12.58
2022-11-03T19:16:02.791Z,12.47
2022-11-03T19:18:34.978Z,12.47
2022-11-03T19:21:01.885Z,12.60
2022-11-03T19:23:28.793Z,12.58
2022-11-03T19:25:59.403Z,12.67
2022-11-03T19:28:29.737Z,12.68
2022-11-03T19:30:58.210Z,12.41
2022-11-03T19:33:28.119Z,12.45
2022-11-03T19:35:58.012Z,12.41
2022-11-03T19:38:25.527Z,12.16
2022-11-03T19:41:11.492Z,12.06
2022-11-03T19:43:38.444Z,12.18
2022-11-03T19:46:05.513Z,12.30
2022-11-03T19:48:34.439Z,12.23
2022-11-03T19:51:08.863Z,12.25
2022-11-03T19:53:37.113Z,12.35
2022-11-03T19:56:04.943Z,12.19
2022-11-03T19:58:31.874Z,12.24
2022-11-03T20:01:02.819Z,12.23
2022-11-03T20:03:32.752Z,12.08
2022-11-03T20:05:59.764Z,12.24
2022-11-03T20:08:29.486Z,12.14
2022-11-03T20:10:56.588Z,12.24
2022-11-03T20:13:26.305Z,12.26
2022-11-03T20:15:58.908Z,12.17
2022-11-03T20:18:26.267Z,12.13
2022-11-03T20:20:53.184Z,12.24
2022-11-03T20:23:29.056Z,12.34
2022-11-03T20:25:56.504Z,12.31
2022-11-03T20:28:27.804Z,12.15
2022-11-03T20:30:55.736Z,12.35
2022-11-03T20:33:24.397Z,12.25
2022-11-03T20:35:53.834Z,12.32
2022-11-03T20:38:22.892Z,12.29
2022-11-03T20:40:55.835Z,12.27
2022-11-03T20:43:24.474Z,12.19
2022-11-03T20:45:51.484Z,12.28
2022-11-03T20:48:18.423Z,12.19
2022-11-03T20:50:45.477Z,12.39
2022-11-03T20:53:16.158Z,12.31
2022-11-03T20:55:43.630Z,12.22
2022-11-03T20:58:13.456Z,12.30
2022-11-03T21:00:41.936Z,12.45
2022-11-03T21:03:53.594Z,12.45
2022-11-03T21:06:17.805Z,12.44
2022-11-03T21:08:46.451Z,12.43
2022-11-03T21:11:24.178Z,12.58
2022-11-03T21:13:52.886Z,12.67
2022-11-03T21:16:38.559Z,12.70
2022-11-03T21:19:38.556Z,12.71
2022-11-03T21:25:23.393Z,12.76
2022-11-03T21:27:50.815Z,12.73
2022-11-03T21:30:18.660Z,12.64
2022-11-03T21:32:45.849Z,12.62
2022-11-03T21:35:19.449Z,12.73
2022-11-03T21:37:46.615Z,12.65
2022-11-03T21:40:13.682Z,12.71
2022-11-03T21:42:59.408Z,12.88
2022-11-03T21:45:26.587Z,12.90
2022-11-03T21:48:14.311Z,13.03
2022-11-03T21:50:42.352Z,13.05
2022-11-03T21:53:10.009Z,13.00
2022-11-03T21:55:37.284Z,12.99
2022-11-03T21:58:05.003Z,13.05
2022-11-03T22:00:32.285Z,13.00
2022-11-03T22:02:59.946Z,12.97
2022-11-03T22:05:27.622Z,13.02
2022-11-03T22:07:54.647Z,12.98
2022-11-03T22:10:21.874Z,13.09
2022-11-03T22:12:48.961Z,13.15
2022-11-03T22:15:34.822Z,13.07
2022-11-03T22:18:03.448Z,13.08
2022-11-03T22:20:48.595Z,13.09
2022-11-03T22:23:34.433Z,13.04
2022-11-03T22:26:20.589Z,13.03
2022-11-03T22:29:07.418Z,13.06
2022-11-03T22:31:43.269Z,12.87
2022-11-03T22:34:28.906Z,12.87
2022-11-03T22:36:55.948Z,12.92
2022-11-03T22:39:41.536Z,12.77
2022-11-03T22:42:30.151Z,12.76
2022-11-03T22:45:15.816Z,12.89
2022-11-03T22:47:42.711Z,12.88
2022-11-03T22:50:10.128Z,12.77
2022-11-03T22:52:37.154Z,12.66
2022-11-03T22:55:04.632Z,12.60
2022-11-03T22:57:31.590Z,12.58
2022-11-03T22:59:58.514Z,12.46
2022-11-03T23:02:25.414Z,12.59
2022-11-03T23:04:52.393Z,12.68
2022-11-03T23:07:19.315Z,12.68
2022-11-03T23:09:46.560Z,12.73
2022-11-03T23:12:13.433Z,12.75
2022-11-03T23:14:58.892Z,12.67
2022-11-03T23:17:45.705Z,12.68
2022-11-03T23:20:31.423Z,12.66
2022-11-03T23:22:58.471Z,12.47
2022-11-03T23:25:25.364Z,12.37
2022-11-03T23:27:52.855Z,12.41
2022-11-03T23:30:19.809Z,12.28
2022-11-03T23:32:46.679Z,12.26
2022-11-03T23:35:14.701Z,12.24
2022-11-03T23:37:41.633Z,12.33
2022-11-03T23:40:09.005Z,12.37
2022-11-03T23:42:35.865Z,12.24
2022-11-03T23:45:21.302Z,12.32
2022-11-03T23:48:07.289Z,12.21
2022-11-03T23:50:34.521Z,12.23
2022-11-03T23:53:01.439Z,12.23
2022-11-03T23:55:48.478Z,12.24
2022-11-03T23:58:21.758Z,12.15
